Аэропорт: Атырау. Атырау

ICAO: UATG

METAR:
2019/03/26 13:00
UATG 261300Z 19006MPS CAVOK 11/00 Q1020 R14/CLRD70 NOSIG RMK QFE767/1023
METAR:
2019/03/26 12:18
TAF UATG 261102Z 2612/2712 VRB03MPS 9999 SCT033CB TX12/2711Z TNM00/2704Z 
      BECMG 2619/2620 3100 BR SCT011 
      BECMG 2704/2705 10006MPS